Time;durP1;ratioP1;P1;durP2;ratioP2;P2;SDS_P1;SDS_P2;PMS_P1;PMS_P2;Temp;Humidity;BMP_temperature;BMP_pressure;BME280_temperature;BME280_humidity;BME280_pressure;Samples;Min_cycle;Max_cycle;Signal;HPM_P1;HPM_P2
2024/04/03 00:00:07;;;;;;;2.80;0.60;;;;;;;10.46;46.11;100421.86;107630;1256;114904;-65
2024/04/03 00:02:56;;;;;;;0.60;0.60;;;;;;;10.45;46.24;100424.12;107588;1254;110213;-66
2024/04/03 00:05:24;;;;;;;0.90;0.60;;;;;;;10.44;46.44;100422.75;107538;1251;108114;-65
2024/04/03 00:07:52;;;;;;;0.40;0.40;;;;;;;10.43;46.15;100422.89;107428;1254;100532;-66
2024/04/03 00:10:20;;;;;;;1.10;0.70;;;;;;;10.43;46.28;100423.66;107517;1252;100405;-66
2024/04/03 00:12:48;;;;;;;0.90;0.30;;;;;;;10.40;46.44;100432.13;107517;1254;114491;-64
2024/04/03 00:15:17;;;;;;;2.20;0.40;;;;;;;10.33;46.60;100435.44;107584;1251;108429;-67
2024/04/03 00:17:45;;;;;;;0.20;0.20;;;;;;;10.30;46.47;100434.48;107604;1251;108035;-67
2024/04/03 00:20:13;;;;;;;2.00;0.40;;;;;;;10.30;46.61;100434.61;107550;1255;100580;-65
2024/04/03 00:22:41;;;;;;;1.10;0.30;;;;;;;10.33;46.47;100436.67;107445;1251;100424;-64
2024/04/03 00:25:09;;;;;;;0.60;0.30;;;;;;;10.34;46.59;100437.09;107627;1253;116255;-66
2024/04/03 00:27:37;;;;;;;1.40;0.30;;;;;;;10.34;46.49;100434.08;107659;1254;107891;-65
2024/04/03 00:30:07;;;;;;;0.20;0.20;;;;;;;10.35;46.59;100435.07;107535;1254;108358;-66
2024/04/03 00:32:36;;;;;;;0.10;0.10;;;;;;;10.38;46.46;100435.77;107640;1254;100598;-65
2024/04/03 00:35:05;;;;;;;0.60;0.20;;;;;;;10.41;46.55;100443.19;107584;1251;100619;-65
2024/04/03 00:37:35;;;;;;;0.50;0.40;;;;;;;10.41;46.45;100451.43;107621;1251;114938;-65
2024/04/03 00:40:04;;;;;;;0.70;0.40;;;;;;;10.43;46.42;100452.33;107566;1253;107439;-65
2024/04/03 00:42:32;;;;;;;0.30;0.30;;;;;;;10.46;46.36;100451.13;107527;1253;107003;-66
2024/04/03 00:45:00;;;;;;;2.60;0.40;;;;;;;10.47;46.34;100455.81;107588;1251;100543;-66
2024/04/03 00:47:29;;;;;;;0.90;0.30;;;;;;;10.50;46.22;100458.95;107541;1251;100749;-64
2024/04/03 00:49:58;;;;;;;1.80;0.40;;;;;;;10.52;45.85;100463.14;107511;1251;114228;-66
2024/04/03 00:52:26;;;;;;;0.40;0.20;;;;;;;10.53;46.00;100469.98;107719;1251;108323;-65
2024/04/03 00:54:55;;;;;;;2.40;0.30;;;;;;;10.55;46.00;100473.43;107521;1250;108076;-65
2024/04/03 00:57:23;;;;;;;0.30;0.30;;;;;;;10.57;45.92;100479.09;107471;1254;100536;-67
2024/04/03 00:59:52;;;;;;;1.00;0.30;;;;;;;10.60;46.05;100477.08;107647;1253;100421;-65
2024/04/03 01:02:20;;;;;;;0.80;0.40;;;;;;;10.59;45.87;100480.70;107636;1252;114450;-65
2024/04/03 01:04:48;;;;;;;0.50;0.40;;;;;;;10.58;45.84;100482.77;107515;1253;108835;-66
2024/04/03 01:07:17;;;;;;;0.40;0.40;;;;;;;10.59;45.92;100478.95;107474;1251;108288;-65
2024/04/03 01:09:45;;;;;;;3.60;0.70;;;;;;;10.58;45.86;100477.65;107497;1251;100647;-66
2024/04/03 01:12:13;;;;;;;0.90;0.50;;;;;;;10.57;45.82;100475.20;107506;1251;101055;-66
2024/04/03 01:14:42;;;;;;;5.10;1.30;;;;;;;10.57;46.14;100475.39;107524;1251;114461;-66
2024/04/03 01:17:10;;;;;;;2.20;1.00;;;;;;;10.55;46.29;100478.61;107572;1251;108341;-65
2024/04/03 01:19:38;;;;;;;1.20;0.70;;;;;;;10.52;46.17;100481.91;107513;1251;108207;-66
2024/04/03 01:22:06;;;;;;;0.40;0.40;;;;;;;10.51;46.15;100488.33;107537;1251;100529;-66
2024/04/03 01:24:34;;;;;;;1.50;0.40;;;;;;;10.50;46.19;100486.41;107525;1251;101074;-65
2024/04/03 01:27:03;;;;;;;1.60;0.50;;;;;;;10.50;46.35;100489.27;107657;1251;113505;-65
2024/04/03 01:29:33;;;;;;;5.30;0.50;;;;;;;10.50;46.03;100491.30;107580;1251;107778;-65
2024/04/03 01:32:02;;;;;;;1.30;0.40;;;;;;;10.47;46.19;100494.98;107539;1251;107146;-65
2024/04/03 01:34:31;;;;;;;0.80;0.40;;;;;;;10.42;46.61;100498.50;107545;1251;101161;-66
2024/04/03 01:36:59;;;;;;;2.90;0.50;;;;;;;10.37;46.49;100500.00;107572;1251;100388;-66
2024/04/03 01:39:29;;;;;;;1.70;0.50;;;;;;;10.35;47.05;100504.43;107560;1251;113524;-65
2024/04/03 01:41:57;;;;;;;4.00;0.50;;;;;;;10.31;47.10;100509.25;107484;1251;106902;-65
2024/04/03 01:44:25;;;;;;;1.40;0.70;;;;;;;10.29;47.17;100506.59;107512;1251;108395;-65
2024/04/03 01:46:53;;;;;;;2.40;0.50;;;;;;;10.29;46.97;100508.14;107474;1250;100535;-65
2024/04/03 01:49:22;;;;;;;2.70;0.60;;;;;;;10.31;46.99;100507.70;107582;1255;100578;-65
2024/04/03 01:51:50;;;;;;;5.10;0.50;;;;;;;10.32;46.92;100512.75;107647;1251;114373;-66
2024/04/03 01:54:18;;;;;;;2.20;0.50;;;;;;;10.33;47.05;100511.94;107502;1251;109200;-66
2024/04/03 01:56:46;;;;;;;5.50;0.60;;;;;;;10.34;46.99;100513.16;107521;1251;106795;-65
2024/04/03 01:59:42;;;;;;;2.70;0.60;;;;;;;10.34;47.05;100515.65;107518;1251;100716;-65
2024/04/03 02:02:10;;;;;;;2.70;0.40;;;;;;;10.30;47.06;100517.77;107525;1254;100423;-65
2024/04/03 02:04:39;;;;;;;0.80;0.40;;;;;;;10.27;47.18;100520.36;107557;1250;114679;-64
2024/04/03 02:07:07;;;;;;;0.80;0.50;;;;;;;10.23;47.55;100523.11;107515;1250;107997;-66
2024/04/03 02:09:35;;;;;;;1.30;0.60;;;;;;;10.18;47.75;100522.63;107576;1251;107674;-66
2024/04/03 02:12:05;;;;;;;3.10;0.80;;;;;;;10.14;47.57;100519.73;107560;1251;100609;-65
2024/04/03 02:14:33;;;;;;;4.60;0.50;;;;;;;10.12;47.72;100518.04;107526;1251;100638;-65
2024/04/03 02:17:02;;;;;;;1.30;0.60;;;;;;;10.10;47.81;100525.90;107501;1251;114263;-65
2024/04/03 02:19:30;;;;;;;1.30;0.80;;;;;;;10.08;47.99;100516.05;107501;1252;108096;-66
2024/04/03 02:21:58;;;;;;;3.90;0.80;;;;;;;10.06;48.15;100521.77;107559;1253;106753;-65
2024/04/03 02:24:26;;;;;;;0.90;0.40;;;;;;;9.99;48.60;100515.52;107563;1253;101067;-65
2024/04/03 02:26:55;;;;;;;6.70;0.70;;;;;;;9.95;48.86;100511.52;107615;1254;100434;-64
2024/04/03 02:29:23;;;;;;;3.40;0.30;;;;;;;9.91;49.43;100520.45;107582;1251;114046;-64
2024/04/03 02:31:51;;;;;;;4.90;0.70;;;;;;;9.89;49.20;100524.17;107577;1251;108292;-64
2024/04/03 02:34:20;;;;;;;1.50;0.70;;;;;;;9.87;49.12;100526.00;107535;1254;108069;-65
2024/04/03 02:36:48;;;;;;;1.00;0.50;;;;;;;9.85;49.49;100525.62;107595;1251;100529;-65
2024/04/03 02:39:16;;;;;;;0.40;0.30;;;;;;;9.83;49.30;100523.30;107602;1251;101077;-65
2024/04/03 02:41:44;;;;;;;1.60;0.90;;;;;;;9.88;49.45;100529.64;107585;1254;114028;-65
2024/04/03 02:44:13;;;;;;;2.80;0.50;;;;;;;9.89;49.65;100533.86;107624;1251;108147;-65
2024/04/03 02:46:41;;;;;;;4.00;0.50;;;;;;;9.92;49.47;100541.44;107530;1251;108211;-65
2024/04/03 02:49:10;;;;;;;0.80;0.40;;;;;;;9.95;49.46;100543.35;107559;1254;100603;-66
2024/04/03 02:51:38;;;;;;;5.10;0.70;;;;;;;9.97;49.41;100539.20;107616;1254;101038;-66
2024/04/03 02:54:06;;;;;;;2.70;0.50;;;;;;;10.02;49.09;100544.85;107596;1254;113809;-66
2024/04/03 02:56:34;;;;;;;5.30;0.90;;;;;;;10.05;49.01;100546.60;107589;1253;106969;-65
2024/04/03 02:59:02;;;;;;;3.90;0.70;;;;;;;10.05;48.96;100548.71;107546;1254;107124;-65
2024/04/03 03:01:30;;;;;;;1.50;0.50;;;;;;;10.07;48.78;100547.85;107407;1257;100542;-65
2024/04/03 03:04:00;;;;;;;4.00;0.40;;;;;;;10.09;48.79;100547.34;107582;1254;101170;-66
2024/04/03 03:06:28;;;;;;;5.30;0.60;;;;;;;10.10;48.65;100555.45;107558;1251;114141;-65
2024/04/03 03:08:56;;;;;;;10.90;3.80;;;;;;;10.09;48.87;100555.85;107616;1250;108210;-66
2024/04/03 03:11:24;;;;;;;5.90;2.10;;;;;;;10.13;48.99;100553.20;107493;1254;108169;-65
2024/04/03 03:13:53;;;;;;;3.00;1.40;;;;;;;10.13;49.01;100555.69;107561;1256;100575;-65
2024/04/03 03:16:22;;;;;;;3.60;1.00;;;;;;;10.09;48.92;100556.62;107620;1256;101070;-65
2024/04/03 03:18:50;;;;;;;8.60;1.70;;;;;;;10.03;49.19;100556.05;107603;1252;114442;-65
2024/04/03 03:21:18;;;;;;;1.70;0.50;;;;;;;9.98;49.19;100555.75;107585;1251;108317;-66
2024/04/03 03:23:46;;;;;;;8.90;1.70;;;;;;;9.95;49.26;100560.02;107539;1251;110035;-67
2024/04/03 03:26:14;;;;;;;1.40;0.70;;;;;;;9.95;49.23;100562.36;107496;1251;100577;-65
2024/04/03 03:28:43;;;;;;;5.80;1.10;;;;;;;9.94;49.20;100561.71;107584;1252;101197;-65
2024/04/03 03:31:13;;;;;;;2.20;0.80;;;;;;;9.91;49.33;100561.05;107593;1253;114107;-65
2024/04/03 03:33:41;;;;;;;0.90;0.40;;;;;;;9.90;49.61;100560.33;107593;1254;107875;-65
2024/04/03 03:36:09;;;;;;;5.30;0.50;;;;;;;9.89;49.53;100568.23;107572;1254;107491;-66
2024/04/03 03:38:38;;;;;;;3.10;1.00;;;;;;;9.87;49.43;100565.90;107570;1254;100498;-64
2024/04/03 03:41:06;;;;;;;2.90;0.90;;;;;;;9.86;49.44;100571.52;107571;1252;101061;-65
2024/04/03 03:43:34;;;;;;;5.30;0.80;;;;;;;9.84;49.48;100573.90;107493;1254;114189;-65
2024/04/03 03:46:03;;;;;;;2.50;0.80;;;;;;;9.82;49.54;100575.33;107413;1254;107986;-65
2024/04/03 03:54:05;;;;;;;11.00;2.40;;;;;;;9.80;49.61;100587.12;107631;1252;100518;-66
2024/04/03 03:56:36;;;;;;;15.70;2.50;;;;;;;9.80;49.38;100592.83;107569;1253;113795;-67
2024/04/03 03:59:11;;;;;;;17.40;2.90;;;;;;;9.80;49.35;100598.04;107568;1251;108045;-67
2024/04/03 04:01:39;;;;;;;11.30;2.30;;;;;;;9.81;49.58;100602.08;107550;1251;107168;-66
2024/04/03 04:04:08;;;;;;;6.90;2.50;;;;;;;9.85;49.57;100599.75;107510;1251;100528;-66
2024/04/03 04:06:36;;;;;;;25.70;4.30;;;;;;;9.90;49.65;100605.27;107610;1251;100689;-67
2024/04/03 04:09:04;;;;;;;14.80;5.30;;;;;;;9.95;49.53;100608.23;107594;1251;114480;-67
2024/04/03 04:11:33;;;;;;;35.60;7.50;;;;;;;9.99;49.51;100603.66;107652;1251;108748;-66
2024/04/03 04:14:01;;;;;;;23.50;5.10;;;;;;;10.03;49.55;100610.13;107531;1255;107635;-66
2024/04/03 04:16:29;;;;;;;18.00;3.30;;;;;;;10.03;49.84;100607.27;107590;1251;100521;-67
2024/04/03 04:18:57;;;;;;;18.40;2.40;;;;;;;10.05;49.80;100610.02;107614;1252;100536;-67
2024/04/03 04:21:27;;;;;;;17.60;2.30;;;;;;;10.04;50.00;100609.54;107611;1254;114330;-67
2024/04/03 04:23:56;;;;;;;5.50;1.70;;;;;;;10.02;50.31;100607.05;107621;1253;107631;-66
2024/04/03 04:26:24;;;;;;;9.20;1.50;;;;;;;10.01;50.12;100605.14;107545;1251;108889;-66
2024/04/03 04:28:51;;;;;;;14.60;5.90;;;;;;;10.00;50.20;100611.55;107524;1251;100695;-64
2024/04/03 04:31:20;;;;;;;16.90;4.80;;;;;;;10.00;50.19;100608.99;107572;1251;101144;-65
2024/04/03 04:33:48;;;;;;;10.30;2.70;;;;;;;10.02;50.11;100612.41;107572;1251;114575;-66
2024/04/03 04:36:16;;;;;;;2.50;1.40;;;;;;;10.00;50.10;100615.41;107647;1251;108291;-65
2024/04/03 04:38:45;;;;;;;12.00;1.50;;;;;;;9.98;49.95;100616.73;107532;1250;107662;-65
2024/04/03 04:41:13;;;;;;;7.00;1.70;;;;;;;9.96;49.90;100619.00;107572;1253;100548;-65
2024/04/03 04:43:41;;;;;;;7.90;1.80;;;;;;;10.00;50.06;100621.18;107613;1253;100619;-64
2024/04/03 04:46:09;;;;;;;11.30;2.00;;;;;;;10.05;49.95;100622.91;107573;1251;114501;-66
2024/04/03 04:48:37;;;;;;;4.50;1.40;;;;;;;10.12;49.63;100624.48;107552;1254;107263;-66
2024/04/03 04:51:06;;;;;;;8.00;1.10;;;;;;;10.18;49.63;100630.72;107508;1254;108162;-66
2024/04/03 04:53:34;;;;;;;8.90;1.50;;;;;;;10.27;49.59;100635.31;107552;1251;100554;-65
2024/04/03 04:56:04;;;;;;;5.90;1.30;;;;;;;10.35;49.42;100632.41;107605;1251;100533;-66
2024/04/03 04:58:32;;;;;;;13.20;1.70;;;;;;;10.43;49.38;100632.83;107678;1250;112924;-66
2024/04/03 05:01:00;;;;;;;7.80;1.30;;;;;;;10.53;49.28;100636.60;107628;1251;108339;-64
2024/04/03 05:03:29;;;;;;;6.70;1.60;;;;;;;10.62;49.13;100639.92;107536;1251;108258;-64
2024/04/03 05:05:57;;;;;;;9.50;1.90;;;;;;;10.71;49.00;100644.64;107569;1251;100597;-65
2024/04/03 05:08:26;;;;;;;9.40;1.50;;;;;;;10.80;49.05;100639.38;107601;1250;100523;-65
2024/04/03 05:10:56;;;;;;;8.20;1.60;;;;;;;10.88;48.62;100641.27;107591;1251;114771;-66
2024/04/03 05:13:32;;;;;;;5.20;1.60;;;;;;;10.97;48.66;100641.59;107562;1251;107610;-64
2024/04/03 05:16:08;;;;;;;5.00;1.60;;;;;;;11.08;48.39;100638.61;107589;1251;107543;-65
2024/04/03 05:18:36;;;;;;;11.50;1.60;;;;;;;11.19;48.26;100636.86;107669;1250;100520;-66
2024/04/03 05:21:05;;;;;;;9.60;2.00;;;;;;;11.29;48.11;100635.06;107639;1251;101053;-65
2024/04/03 05:23:33;;;;;;;9.20;2.60;;;;;;;11.39;47.95;100633.31;107498;1251;114921;-66
2024/04/03 05:26:05;;;;;;;9.90;1.60;;;;;;;11.52;47.85;100635.14;107603;1254;108781;-65
2024/04/03 05:28:35;;;;;;;14.40;2.20;;;;;;;11.68;47.85;100637.26;107525;1251;107485;-66
2024/04/03 05:31:09;;;;;;;11.50;1.50;;;;;;;11.87;47.67;100633.17;107610;1251;100429;-66
2024/04/03 05:33:38;;;;;;;8.70;1.60;;;;;;;12.06;47.30;100629.57;107638;1250;100421;-65
2024/04/03 05:36:08;;;;;;;7.00;2.30;;;;;;;12.24;46.95;100623.34;107633;1253;113552;-65
2024/04/03 05:38:41;;;;;;;14.80;2.20;;;;;;;12.41;46.81;100624.86;107527;1254;108732;-66
2024/04/03 05:41:09;;;;;;;13.80;2.00;;;;;;;12.59;46.42;100628.03;107621;1250;108770;-65
2024/04/03 05:43:41;;;;;;;4.90;1.30;;;;;;;12.71;45.38;100623.21;107590;1251;100526;-67
2024/04/03 05:46:09;;;;;;;10.00;1.30;;;;;;;12.81;44.86;100618.24;107561;1251;101144;-66
2024/04/03 05:48:37;;;;;;;3.90;0.90;;;;;;;12.85;44.09;100621.39;107602;1251;114530;-66
2024/04/03 05:51:07;;;;;;;2.90;1.20;;;;;;;12.96;43.96;100619.47;107644;1251;108402;-65
2024/04/03 05:53:36;;;;;;;3.30;0.90;;;;;;;13.01;43.94;100619.48;107528;1253;107417;-65
2024/04/03 05:56:05;;;;;;;3.70;1.00;;;;;;;13.07;43.83;100619.91;107566;1254;100555;-65
2024/04/03 05:58:34;;;;;;;10.80;1.30;;;;;;;13.14;43.74;100622.13;107680;1254;101070;-65
2024/04/03 06:01:03;;;;;;;6.10;0.90;;;;;;;13.21;43.70;100625.63;107597;1250;113124;-66
2024/04/03 06:03:32;;;;;;;2.20;1.00;;;;;;;13.26;43.45;100625.02;107528;1251;106640;-66
2024/04/03 06:06:00;;;;;;;2.60;0.90;;;;;;;13.33;43.43;100624.70;107543;1251;108502;-65
2024/04/03 06:08:29;;;;;;;4.40;1.40;;;;;;;13.39;43.36;100625.90;107531;1253;100433;-66
2024/04/03 06:10:57;;;;;;;7.20;1.50;;;;;;;13.43;43.09;100624.80;107587;1254;100611;-65
2024/04/03 06:13:25;;;;;;;11.10;5.40;;;;;;;13.48;43.29;100626.61;107592;1251;115010;-66
2024/04/03 06:15:54;;;;;;;11.20;2.30;;;;;;;13.53;43.23;100623.04;107606;1252;108287;-66
2024/04/03 06:18:23;;;;;;;9.50;1.70;;;;;;;13.58;43.32;100623.07;107532;1250;108189;-66
2024/04/03 06:20:51;;;;;;;5.60;2.40;;;;;;;13.66;42.93;100622.91;107609;1251;100560;-65
2024/04/03 06:23:20;;;;;;;4.50;2.40;;;;;;;13.75;42.98;100632.29;107567;1254;101295;-65
2024/04/03 06:25:51;;;;;;;5.80;2.00;;;;;;;13.80;42.66;100634.27;107590;1251;114552;-65
2024/04/03 06:28:19;;;;;;;11.00;2.70;;;;;;;13.90;42.83;100633.85;107610;1251;107797;-64
2024/04/03 06:30:47;;;;;;;6.10;2.00;;;;;;;13.99;42.53;100636.52;107629;1251;108153;-66
2024/04/03 06:33:16;;;;;;;9.30;1.90;;;;;;;14.06;42.54;100636.80;107571;1250;101219;-66
2024/04/03 06:35:44;;;;;;;4.90;1.60;;;;;;;14.16;42.10;100645.83;107553;1251;101163;-65
2024/04/03 06:38:13;;;;;;;4.00;1.40;;;;;;;14.23;41.72;100641.20;107665;1256;114323;-65
2024/04/03 06:40:42;;;;;;;4.20;1.30;;;;;;;14.29;41.44;100644.49;107520;1251;107465;-64
2024/04/03 06:43:10;;;;;;;4.10;1.50;;;;;;;14.32;41.40;100643.34;107628;1252;107427;-65
2024/04/03 06:45:39;;;;;;;10.40;1.80;;;;;;;14.37;41.31;100647.80;107572;1253;100514;-65
2024/04/03 06:48:07;;;;;;;5.20;1.40;;;;;;;14.44;41.22;100648.00;107548;1251;100532;-66
2024/04/03 06:50:35;;;;;;;5.10;2.20;;;;;;;14.49;41.12;100646.39;107563;1251;113739;-66
2024/04/03 06:53:03;;;;;;;7.10;1.60;;;;;;;14.57;41.09;100645.88;107626;1251;108441;-66
2024/04/03 06:55:31;;;;;;;10.60;2.10;;;;;;;14.67;41.23;100642.77;107552;1251;107781;-64
2024/04/03 06:58:00;;;;;;;7.60;1.80;;;;;;;14.79;41.21;100642.63;107567;1254;100646;-66
2024/04/03 07:00:30;;;;;;;6.90;1.80;;;;;;;14.91;40.61;100640.95;107582;1251;100525;-66
2024/04/03 07:02:59;;;;;;;6.30;1.50;;;;;;;14.93;40.39;100651.04;107559;1251;114910;-66
2024/04/03 07:05:27;;;;;;;5.80;1.90;;;;;;;14.95;40.51;100644.16;107656;1251;108645;-66
2024/04/03 07:07:56;;;;;;;7.60;1.60;;;;;;;14.96;40.49;100640.38;107555;1251;107634;-65
2024/04/03 07:10:24;;;;;;;2.90;1.50;;;;;;;14.98;40.45;100637.84;107529;1250;100614;-67
2024/04/03 07:12:52;;;;;;;11.90;1.90;;;;;;;15.02;40.31;100638.28;107622;1250;100534;-66
2024/04/03 07:15:20;;;;;;;5.10;1.80;;;;;;;15.04;40.23;100640.78;107538;1253;114484;-65
2024/04/03 07:17:49;;;;;;;3.00;1.10;;;;;;;15.09;39.78;100648.77;107561;1251;108590;-65
2024/04/03 07:20:18;;;;;;;3.20;1.50;;;;;;;15.12;39.19;100650.20;107530;1250;107801;-66
2024/04/03 07:22:46;;;;;;;3.20;1.40;;;;;;;15.13;39.02;100651.73;107571;1256;100738;-65
2024/04/03 07:25:15;;;;;;;5.40;1.30;;;;;;;15.11;38.76;100649.48;107671;1251;100421;-67
2024/04/03 07:27:46;;;;;;;7.40;2.00;;;;;;;15.18;38.97;100643.05;107569;1251;113385;-65
2024/04/03 07:30:18;;;;;;;3.30;1.60;;;;;;;15.34;38.89;100641.69;107638;1251;107059;-66
2024/04/03 07:32:47;;;;;;;8.90;1.60;;;;;;;15.53;37.98;100642.89;107569;1251;107245;-66
2024/04/03 07:35:15;;;;;;;1.60;0.80;;;;;;;15.65;37.54;100636.83;107619;1250;100475;-65
2024/04/03 07:37:46;;;;;;;10.50;1.20;;;;;;;15.73;37.23;100631.52;107607;1252;101061;-67
2024/04/03 07:40:15;;;;;;;3.00;0.90;;;;;;;15.80;37.09;100627.92;107585;1251;113710;-67
2024/04/03 07:42:44;;;;;;;6.10;1.00;;;;;;;15.86;36.57;100628.85;107549;1251;108302;-65
2024/04/03 07:45:12;;;;;;;3.80;1.20;;;;;;;15.92;36.74;100627.29;107526;1251;107229;-66
2024/04/03 07:47:41;;;;;;;3.60;1.00;;;;;;;16.03;36.59;100634.23;107555;1252;100516;-67
2024/04/03 07:50:09;;;;;;;2.50;0.70;;;;;;;16.13;35.98;100637.30;107606;1254;100436;-66
2024/04/03 07:52:40;;;;;;;4.60;1.10;;;;;;;16.10;35.44;100636.86;107533;1256;113621;-65
2024/04/03 07:55:10;;;;;;;2.70;1.00;;;;;;;16.13;35.86;100637.04;107560;1254;107541;-66
2024/04/03 07:57:39;;;;;;;5.10;0.90;;;;;;;16.23;35.70;100641.17;106868;1251;966931;-66
2024/04/03 08:00:09;;;;;;;5.40;0.80;;;;;;;16.26;35.02;100644.24;107585;1254;100424;-66
2024/04/03 08:02:42;;;;;;;5.70;1.10;;;;;;;16.22;34.09;100641.65;107568;1256;100424;-65
2024/04/03 08:05:12;;;;;;;1.40;0.60;;;;;;;16.17;34.18;100641.27;107585;1251;114971;-66
2024/04/03 08:07:44;;;;;;;1.20;0.70;;;;;;;16.16;34.06;100644.81;107544;1251;106594;-65
2024/04/03 08:10:13;;;;;;;5.90;0.90;;;;;;;16.19;34.09;100647.88;107562;1254;108382;-64
2024/04/03 08:12:41;;;;;;;3.60;0.60;;;;;;;16.28;34.28;100651.46;107605;1255;100523;-65
2024/04/03 08:15:11;;;;;;;4.50;1.10;;;;;;;16.33;33.87;100646.49;107667;1251;100408;-65
2024/04/03 08:17:40;;;;;;;5.60;1.00;;;;;;;16.36;33.83;100653.27;107601;1251;114862;-67
2024/04/03 08:20:09;;;;;;;2.80;0.70;;;;;;;16.40;33.88;100661.96;107550;1251;107752;-66
2024/04/03 08:22:39;;;;;;;6.10;1.10;;;;;;;16.41;33.21;100653.41;107569;1252;108683;-66
2024/04/03 08:25:07;;;;;;;3.80;1.20;;;;;;;16.41;33.35;100653.33;107530;1253;100549;-66
2024/04/03 08:27:35;;;;;;;10.60;2.00;;;;;;;16.34;33.21;100648.96;107586;1254;100925;-66
2024/04/03 08:30:05;;;;;;;7.10;1.80;;;;;;;16.33;33.40;100650.73;107586;1251;114679;-66
2024/04/03 08:32:34;;;;;;;4.40;1.40;;;;;;;16.37;33.46;100651.66;107599;1251;108049;-65
2024/04/03 08:35:04;;;;;;;6.00;1.60;;;;;;;16.39;32.88;100653.65;107584;1251;108655;-66
2024/04/03 08:37:32;;;;;;;1.50;0.60;;;;;;;16.42;33.04;100654.92;107531;1254;100421;-66
2024/04/03 08:40:14;;;;;;;3.70;0.90;;;;;;;16.52;32.99;100657.94;107562;1254;101122;-66
2024/04/03 08:42:43;;;;;;;14.40;1.20;;;;;;;16.66;32.77;100661.89;107549;1254;114620;-66
2024/04/03 08:45:15;;;;;;;5.50;1.10;;;;;;;16.78;32.86;100656.39;107572;1254;108019;-67
2024/04/03 08:47:44;;;;;;;2.20;0.80;;;;;;;16.90;32.48;100659.71;107608;1254;107483;-67
2024/04/03 08:50:13;;;;;;;7.20;0.80;;;;;;;17.01;31.77;100661.52;107552;1254;100533;-66
2024/04/03 08:52:42;;;;;;;0.50;0.40;;;;;;;17.08;31.36;100661.73;107527;1252;100651;-66
2024/04/03 08:55:14;;;;;;;0.70;0.60;;;;;;;17.21;31.02;100668.42;107591;1251;116547;-66
2024/04/03 08:57:43;;;;;;;0.40;0.40;;;;;;;17.33;31.05;100656.13;107574;1251;108341;-66
2024/04/03 09:00:13;;;;;;;1.30;0.70;;;;;;;17.53;30.65;100656.46;107536;1251;107164;-65
2024/04/03 09:02:41;;;;;;;0.30;0.30;;;;;;;17.79;30.19;100660.44;107565;1254;101411;-65
2024/04/03 09:05:10;;;;;;;2.40;0.60;;;;;;;17.98;29.19;100659.61;107620;1251;103276;-66
2024/04/03 09:07:39;;;;;;;1.50;0.70;;;;;;;18.15;29.15;100656.03;107548;1251;114722;-65
2024/04/03 09:10:07;;;;;;;1.80;0.60;;;;;;;18.30;29.43;100650.11;107501;1254;108319;-65
2024/04/03 09:12:36;;;;;;;4.20;1.70;;;;;;;18.50;29.40;100660.45;107531;1254;109396;-65
2024/04/03 09:15:10;;;;;;;1.40;0.50;;;;;;;18.75;28.44;100665.59;107538;1254;100542;-66
2024/04/03 09:17:38;;;;;;;2.20;0.40;;;;;;;19.06;27.76;100665.73;107598;1254;101121;-67
2024/04/03 09:20:07;;;;;;;1.40;0.60;;;;;;;19.25;27.62;100652.81;107570;1251;114063;-65
2024/04/03 09:22:36;;;;;;;1.80;0.50;;;;;;;19.51;27.32;100662.17;107560;1254;107386;-66
2024/04/03 09:25:05;;;;;;;3.70;0.60;;;;;;;19.74;27.06;100661.38;107571;1251;107954;-66
2024/04/03 09:27:33;;;;;;;4.10;0.70;;;;;;;20.09;26.59;100654.55;107547;1251;100608;-67
2024/04/03 09:30:01;;;;;;;1.60;0.50;;;;;;;20.58;26.17;100653.75;107485;1254;100401;-67
2024/04/03 09:32:29;;;;;;;7.10;0.70;;;;;;;21.11;25.92;100644.66;107586;1253;113598;-67
2024/04/03 09:34:58;;;;;;;1.00;0.50;;;;;;;21.48;24.92;100643.83;107553;1254;108047;-67
2024/04/03 09:37:27;;;;;;;3.70;0.70;;;;;;;21.78;24.96;100650.67;107640;1254;107958;-67
2024/04/03 09:39:55;;;;;;;5.30;0.50;;;;;;;22.19;24.01;100650.48;107497;1256;100433;-67
2024/04/03 09:42:24;;;;;;;2.40;0.50;;;;;;;22.70;23.40;100646.82;107585;1255;100619;-67
2024/04/03 09:44:58;;;;;;;1.10;0.70;;;;;;;23.03;23.02;100633.94;107537;1254;115020;-66
2024/04/03 09:47:29;;;;;;;9.10;6.60;;;;;;;23.19;22.64;100634.31;107588;1254;108515;-67
2024/04/03 09:50:00;;;;;;;6.90;2.00;;;;;;;23.50;22.53;100629.02;107566;1254;108228;-66
2024/04/03 09:52:30;;;;;;;2.60;0.60;;;;;;;23.16;23.01;100633.47;107539;1254;100523;-66
2024/04/03 09:54:59;;;;;;;2.70;0.60;;;;;;;23.47;22.80;100636.39;107517;1254;100533;-65
2024/04/03 09:57:27;;;;;;;0.30;0.30;;;;;;;23.83;22.17;100627.30;107624;1254;113883;-66
2024/04/03 09:59:57;;;;;;;1.30;0.60;;;;;;;23.79;22.38;100629.79;107609;1254;108572;-65
2024/04/03 10:02:25;;;;;;;9.60;0.60;;;;;;;24.48;21.35;100625.80;107579;1253;108172;-66
2024/04/03 10:04:58;;;;;;;2.20;0.40;;;;;;;25.18;21.35;100617.25;107567;1251;100648;-67
2024/04/03 10:07:30;;;;;;;2.50;0.40;;;;;;;26.10;20.50;100606.52;107540;1254;100558;-65
2024/04/03 10:09:58;;;;;;;0.90;0.30;;;;;;;26.52;19.57;100608.71;107559;1254;115113;-65
2024/04/03 10:12:28;;;;;;;6.10;0.70;;;;;;;27.08;19.27;100618.80;107640;1254;108540;-64
2024/04/03 10:14:57;;;;;;;3.20;0.50;;;;;;;27.43;18.43;100623.30;107529;1254;107771;-64
2024/04/03 10:17:37;;;;;;;1.90;0.30;;;;;;;27.55;17.95;100618.23;107594;1254;100523;-64
2024/04/03 10:20:06;;;;;;;0.90;0.40;;;;;;;28.12;18.06;100608.94;107574;1254;102258;-63
2024/04/03 10:22:35;;;;;;;1.90;0.50;;;;;;;28.50;17.74;100609.77;107539;1254;113435;-62
2024/04/03 10:25:06;;;;;;;6.30;0.50;;;;;;;28.09;17.24;100614.43;107524;1254;108555;-67
2024/04/03 10:27:34;;;;;;;3.30;0.50;;;;;;;27.33;17.66;100612.35;107558;1254;108722;-66
2024/04/03 10:30:06;;;;;;;3.20;0.40;;;;;;;26.99;17.84;100610.42;107586;1255;100539;-66
2024/04/03 10:32:35;;;;;;;0.70;0.40;;;;;;;26.89;17.98;100607.98;107590;1256;100511;-66
2024/04/03 10:35:04;;;;;;;2.50;0.50;;;;;;;27.34;18.17;100602.48;107611;1251;114058;-66
2024/04/03 10:37:34;;;;;;;1.70;0.50;;;;;;;28.06;17.52;100608.04;107539;1254;107812;-69
2024/04/03 10:40:03;;;;;;;5.00;0.60;;;;;;;28.68;17.46;100604.59;107573;1254;108714;-65
2024/04/03 10:42:31;;;;;;;3.60;1.20;;;;;;;29.43;16.46;100607.20;107637;1251;100580;-65
2024/04/03 10:45:01;;;;;;;9.00;0.70;;;;;;;29.73;15.97;100606.15;107615;1251;100619;-67
2024/04/03 10:47:29;;;;;;;3.20;0.40;;;;;;;29.58;16.09;100601.36;107649;1251;114892;-69
2024/04/03 10:49:57;;;;;;;0.90;0.50;;;;;;;29.37;15.98;100603.72;107642;1256;107081;-68
2024/04/03 10:52:26;;;;;;;4.00;0.50;;;;;;;29.59;16.15;100589.45;107538;1254;107633;-65
2024/04/03 10:54:55;;;;;;;5.00;0.60;;;;;;;29.92;16.28;100587.96;107618;1252;100606;-63
2024/04/03 10:57:23;;;;;;;2.20;0.40;;;;;;;30.09;15.58;100585.93;107574;1251;101072;-65
2024/04/03 10:59:55;;;;;;;2.10;0.50;;;;;;;30.06;15.75;100591.92;107570;1251;113831;-69
2024/04/03 11:02:23;;;;;;;0.50;0.30;;;;;;;29.98;15.44;100591.55;107555;1253;107336;-64
2024/04/03 11:04:51;;;;;;;1.00;0.40;;;;;;;30.21;16.11;100582.54;107538;1251;107666;-66
2024/04/03 11:07:19;;;;;;;1.10;0.70;;;;;;;30.88;15.58;100578.02;107560;1251;100546;-67
2024/04/03 11:09:48;;;;;;;1.90;0.40;;;;;;;30.73;14.35;100585.77;107577;1251;100415;-64
2024/04/03 11:12:18;;;;;;;4.80;0.30;;;;;;;30.53;14.59;100577.13;107593;1254;114906;-64
2024/04/03 11:14:55;;;;;;;1.10;0.40;;;;;;;29.80;14.88;100582.30;107617;1254;108548;-66
2024/04/03 11:17:23;;;;;;;1.20;0.40;;;;;;;29.67;15.19;100575.02;107525;1251;106754;-66
2024/04/03 11:19:52;;;;;;;1.70;0.40;;;;;;;29.09;15.35;100588.30;107470;1254;100573;-67
2024/04/03 11:22:20;;;;;;;3.50;0.50;;;;;;;29.26;15.67;100584.84;107621;1251;100641;-63